Página principal
METAR-TAF:

METAR-TAF

Aeroportos :

Magnitogorsk, Rússia

latitude: 53-23-36N, longitude: 058-45-24E, altura: 436 m

Observação actual do tempo

O boletim foi feito há 41 minutos, às 13:00 UTC
Vento 14 kt de sul
Temperatura 20°C
Humidade 53%
Pressão 1018 hPa
Visibilidade 10 km ou mais
Nuvens dispersasa uma altura de 4000 ft

METAR: USCM 241300Z 18007MPS 9999 SCT040 20/10 Q1018 R18/090065 NOSIG RMK QFE726

Hora: 18:41 (13:41 UTC)

Previsão

O boletim foi feito há 2 horas e 41 minutos, às 11:00 UTC
Previsão válida de 24 às 12 UTC a 24 às 21 UTC
Vento 6 kt de sul com rajadas de 16 kt
Visibilidade 10 km ou mais
Nuvens dispersasa uma altura de 4000 ft, Cumulonimbus.
Temporariamente
de 24 às 15 UTC a 24 às 21 UTC
Visibilidade: 5000 m
neblina, fumo

TAF: USCM 241100Z 2412/2421 18003G08MPS 9999 SCT040CB TEMPO 2415/2421 5000 BR FU

Observações e previsões do tempo de mais de 4000 aeroportos (mensagens METAR e TAF).

As estações disponíveis são os pontos amarelos e vermelhos sobre o mapa.

Mova o rato sobre o mapa para ver o nome da estação.

Depois clique no ponto para visualizar as observações e previsões meteorológicas.

Para alterar o mapa : clique nos botões verdes com uma cruz preta para aumentar o zoom; no botão verde com uma pitada de zoom; ou nas setas verdes para mapas adjacentes.


METAR-TAF: